createdAt,value
2017-04-25T00:07:23.217Z,998.5
2017-04-25T00:17:37.763Z,998.4
2017-04-25T00:27:52.461Z,998.5
2017-04-25T00:38:07.410Z,998.4
2017-04-25T00:48:22.822Z,998.2
2017-04-25T00:58:37.291Z,998.2
2017-04-25T01:08:52.787Z,998.2
2017-04-25T01:19:07.185Z,998.1
2017-04-25T01:29:22.326Z,997.9
2017-04-25T01:39:37.753Z,997.9
2017-04-25T01:49:53.129Z,998
2017-04-25T02:00:07.981Z,997.4
2017-04-25T02:10:22.911Z,997.5
2017-04-25T02:20:37.686Z,997.7
2017-04-25T02:30:52.749Z,997.6
2017-04-25T02:41:07.318Z,997.6
2017-04-25T02:51:21.113Z,997.4
2017-04-25T03:01:36.223Z,997.4
2017-04-25T03:11:51.568Z,997.3
2017-04-25T03:22:05.651Z,997.3
2017-04-25T03:32:20.397Z,997.2
2017-04-25T03:42:35.121Z,997.3
2017-04-25T03:52:48.952Z,997.3
2017-04-25T04:03:04.128Z,997.4
2017-04-25T04:13:19.699Z,997.4
2017-04-25T04:23:33.744Z,997.5
2017-04-25T04:33:49.100Z,997.5
2017-04-25T04:44:03.554Z,997.6
2017-04-25T04:54:17.699Z,997.8
2017-04-25T05:04:33.006Z,997.7
2017-04-25T05:14:46.775Z,997.9
2017-04-25T05:25:01.530Z,998.1
2017-04-25T05:35:16.707Z,998.2
2017-04-25T05:45:31.703Z,998.2
2017-04-25T05:55:47.085Z,998.3
2017-04-25T06:06:01.830Z,998.6
2017-04-25T06:16:15.638Z,998.7
2017-04-25T06:26:30.897Z,998.8
2017-04-25T06:36:45.773Z,998.7
2017-04-25T06:47:00.456Z,998.8
2017-04-25T06:57:14.656Z,998.7
2017-04-25T07:07:28.398Z,998.8
2017-04-25T07:17:42.576Z,998.8
2017-04-25T07:27:57.114Z,999.1
2017-04-25T07:38:11.885Z,998.8
2017-04-25T07:48:26.507Z,998.9
2017-04-25T07:58:40.774Z,998.9
2017-04-25T08:08:55.753Z,999
2017-04-25T08:19:10.771Z,999.2
2017-04-25T08:29:25.373Z,999.3
2017-04-25T08:39:39.151Z,999.3
2017-04-25T08:49:53.270Z,999.4
2017-04-25T09:00:08.041Z,999.5
2017-04-25T09:10:23.808Z,999.5
2017-04-25T09:20:37.920Z,999.5
2017-04-25T09:30:52.744Z,999.7
2017-04-25T09:41:08.271Z,1000
2017-04-25T09:51:22.720Z,999.8
2017-04-25T10:01:37.172Z,1000
2017-04-25T10:11:52.771Z,999.6
2017-04-25T10:22:07.182Z,999.5
2017-04-25T10:32:21.581Z,999.9
2017-04-25T10:42:36.624Z,1000.1
2017-04-25T10:52:52.221Z,999.7
2017-04-25T11:03:06.767Z,999.6
2017-04-25T11:13:21.566Z,1000.1
2017-04-25T11:23:35.989Z,1000.5
2017-04-25T11:33:50.236Z,1000.8
2017-04-25T11:44:05.497Z,1000.4
2017-04-25T11:54:21.213Z,1000.3
2017-04-25T12:04:36.519Z,1000.5
2017-04-25T12:14:51.903Z,1000.7
2017-04-25T12:25:07.771Z,1000.5
2017-04-25T12:35:22.707Z,1001
2017-04-25T12:45:38.042Z,1001.3
2017-04-25T12:55:53.199Z,1000.6
2017-04-25T13:06:08.623Z,1000.7
2017-04-25T13:16:23.554Z,1001
2017-04-25T13:26:37.767Z,1001.1
2017-04-25T13:36:51.747Z,1001.1
2017-04-25T13:47:06.372Z,1001.3
2017-04-25T13:57:20.810Z,1001.7
2017-04-25T14:07:35.139Z,1001.4
2017-04-25T14:17:49.221Z,1001.8
2017-04-25T14:28:04.768Z,1001.3
2017-04-25T14:38:18.760Z,1001.8
2017-04-25T14:48:34.105Z,1001.6
2017-04-25T14:58:49.027Z,1001.7
2017-04-25T15:09:04.254Z,1002
2017-04-25T15:19:19.230Z,1001.6
2017-04-25T15:29:34.774Z,1001.7
2017-04-25T15:39:50.506Z,1001.8
2017-04-25T15:50:06.067Z,1001.8
2017-04-25T16:00:21.742Z,1001.8
2017-04-25T16:10:37.164Z,1002
2017-04-25T16:20:51.399Z,1002
2017-04-25T16:31:05.965Z,1002
2017-04-25T16:41:21.047Z,1002.3
2017-04-25T16:51:36.410Z,1002.1
2017-04-25T17:01:50.264Z,1002.3
2017-04-25T17:12:04.125Z,1002.2
2017-04-25T17:22:19.394Z,1002.2
2017-04-25T17:32:34.875Z,1002.2
2017-04-25T17:42:49.661Z,1002.2
2017-04-25T17:53:05.283Z,1002.2
2017-04-25T18:03:19.979Z,1002.2
2017-04-25T18:13:33.742Z,1002.3
2017-04-25T18:23:48.556Z,1002.3
2017-04-25T18:34:03.285Z,1002.2
2017-04-25T18:44:17.803Z,1002.3
2017-04-25T18:54:32.834Z,1002.4
2017-04-25T19:04:46.651Z,1002.5
2017-04-25T19:15:01.210Z,1002.6
2017-04-25T19:25:16.364Z,1002.6
2017-04-25T19:35:30.348Z,1002.8
2017-04-25T19:45:45.940Z,1002.9
2017-04-25T19:56:00.611Z,1002.8
2017-04-25T20:06:15.897Z,1002.8
2017-04-25T20:16:30.541Z,1002.9
2017-04-25T20:26:44.917Z,1002.9
2017-04-25T20:36:58.616Z,1002.9
2017-04-25T20:47:13.197Z,1002.8
2017-04-25T20:57:27.404Z,1002.7
2017-04-25T21:07:41.270Z,1002.7
2017-04-25T21:17:56.198Z,1002.8
2017-04-25T21:28:11.375Z,1002.8
2017-04-25T21:38:25.719Z,1002.7
2017-04-25T21:48:41.190Z,1002.8
2017-04-25T21:58:55.529Z,1002.9
2017-04-25T22:09:10.241Z,1002.8
2017-04-25T22:19:24.136Z,1002.7
2017-04-25T22:29:38.825Z,1002.8
2017-04-25T22:39:54.489Z,1002.7
2017-04-25T22:50:09.511Z,1002.9
2017-04-25T23:00:23.903Z,1002.9
2017-04-25T23:10:38.459Z,1003.1
2017-04-25T23:20:53.620Z,1003.1
2017-04-25T23:31:08.446Z,1003.1
2017-04-25T23:41:22.677Z,1003.1
2017-04-25T23:51:37.876Z,1003.1
